sensor_id;sensor_type;location;lat;lon;timestamp;pressure;altitude;pressure_sealevel;temperature;humidity
78675;BME280;67990;59.826;30.108;2023-05-10T00:00:14;102434.03;;;3.87;63.79
78675;BME280;67990;59.826;30.108;2023-05-10T00:02:42;102430.78;;;3.80;63.91
78675;BME280;67990;59.826;30.108;2023-05-10T00:05:11;102430.81;;;3.79;64.39
78675;BME280;67990;59.826;30.108;2023-05-10T00:07:57;102431.19;;;3.68;65.10
78675;BME280;67990;59.826;30.108;2023-05-10T00:10:24;102428.50;;;3.70;65.00
78675;BME280;67990;59.826;30.108;2023-05-10T00:12:51;102430.88;;;3.77;64.37
78675;BME280;67990;59.826;30.108;2023-05-10T00:18:04;102427.22;;;3.83;63.70
78675;BME280;67990;59.826;30.108;2023-05-10T00:20:32;102425.41;;;3.85;63.99
78675;BME280;67990;59.826;30.108;2023-05-10T00:22:59;102433.94;;;3.88;64.36
78675;BME280;67990;59.826;30.108;2023-05-10T00:25:45;102425.22;;;3.91;64.19
78675;BME280;67990;59.826;30.108;2023-05-10T00:28:31;102421.75;;;3.90;64.13
78675;BME280;67990;59.826;30.108;2023-05-10T00:30:58;102424.50;;;3.86;64.32
78675;BME280;67990;59.826;30.108;2023-05-10T00:33:25;102436.66;;;3.85;64.46
78675;BME280;67990;59.826;30.108;2023-05-10T00:36:12;102438.66;;;3.77;64.37
78675;BME280;67990;59.826;30.108;2023-05-10T00:38:40;102427.66;;;3.69;64.38
78675;BME280;67990;59.826;30.108;2023-05-10T00:41:26;102438.38;;;3.60;64.80
78675;BME280;67990;59.826;30.108;2023-05-10T00:43:54;102427.56;;;3.45;65.12
78675;BME280;67990;59.826;30.108;2023-05-10T00:46:21;102429.31;;;3.46;65.48
78675;BME280;67990;59.826;30.108;2023-05-10T00:48:48;102437.94;;;3.46;65.49
78675;BME280;67990;59.826;30.108;2023-05-10T00:51:18;102424.84;;;3.49;65.58
78675;BME280;67990;59.826;30.108;2023-05-10T00:53:45;102424.97;;;3.45;65.39
78675;BME280;67990;59.826;30.108;2023-05-10T00:56:31;102426.13;;;3.36;65.92
78675;BME280;67990;59.826;30.108;2023-05-10T00:58:58;102426.13;;;3.36;65.93
78675;BME280;67990;59.826;30.108;2023-05-10T01:01:27;102425.31;;;3.34;66.20
78675;BME280;67990;59.826;30.108;2023-05-10T01:04:13;102429.56;;;3.37;66.17
78675;BME280;67990;59.826;30.108;2023-05-10T01:06:42;102423.63;;;3.33;66.36
78675;BME280;67990;59.826;30.108;2023-05-10T01:09:28;102432.50;;;3.26;66.46
78675;BME280;67990;59.826;30.108;2023-05-10T01:15:00;102433.63;;;3.18;66.45
78675;BME280;67990;59.826;30.108;2023-05-10T01:20:15;102433.88;;;3.10;66.84
78675;BME280;67990;59.826;30.108;2023-05-10T01:23:00;102429.56;;;3.09;66.99
78675;BME280;67990;59.826;30.108;2023-05-10T01:26:10;102438.09;;;3.14;66.93
78675;BME280;67990;59.826;30.108;2023-05-10T01:29:19;102431.16;;;3.13;66.68
78675;BME280;67990;59.826;30.108;2023-05-10T01:32:16;102432.09;;;3.11;67.18
78675;BME280;67990;59.826;30.108;2023-05-10T01:34:55;102441.56;;;3.13;67.29
78675;BME280;67990;59.826;30.108;2023-05-10T01:37:31;102431.94;;;3.17;66.78
78675;BME280;67990;59.826;30.108;2023-05-10T01:43:05;102429.19;;;3.21;66.70
78675;BME280;67990;59.826;30.108;2023-05-10T01:45:39;102442.13;;;3.23;66.34
78675;BME280;67990;59.826;30.108;2023-05-10T01:48:11;102442.09;;;3.24;66.39
78675;BME280;67990;59.826;30.108;2023-05-10T01:50:42;102434.31;;;3.24;66.09
78675;BME280;67990;59.826;30.108;2023-05-10T01:53:11;102438.66;;;3.22;66.13
78675;BME280;67990;59.826;30.108;2023-05-10T01:55:43;102437.84;;;3.22;66.07
78675;BME280;67990;59.826;30.108;2023-05-10T01:58:14;102434.09;;;3.30;66.11
78675;BME280;67990;59.826;30.108;2023-05-10T02:06:54;102437.53;;;3.58;65.77
78675;BME280;67990;59.826;30.108;2023-05-10T02:14:55;102445.84;;;3.69;66.20
78675;BME280;67990;59.826;30.108;2023-05-10T02:17:23;102441.34;;;3.74;66.23
78675;BME280;67990;59.826;30.108;2023-05-10T02:19:53;102437.66;;;3.81;65.85
78675;BME280;67990;59.826;30.108;2023-05-10T02:22:21;102437.06;;;3.99;65.40
78675;BME280;67990;59.826;30.108;2023-05-10T02:25:08;102441.63;;;4.17;65.10
78675;BME280;67990;59.826;30.108;2023-05-10T02:27:37;102444.13;;;4.20;63.42
78675;BME280;67990;59.826;30.108;2023-05-10T02:33:12;102454.31;;;4.51;60.67
78675;BME280;67990;59.826;30.108;2023-05-10T02:35:42;102440.88;;;4.63;60.19
78675;BME280;67990;59.826;30.108;2023-05-10T02:38:10;102442.03;;;4.79;59.89
78675;BME280;67990;59.826;30.108;2023-05-10T02:40:40;102454.41;;;4.95;59.69
78675;BME280;67990;59.826;30.108;2023-05-10T02:43:12;102440.72;;;4.90;60.03
78675;BME280;67990;59.826;30.108;2023-05-10T02:45:40;102451.50;;;5.04;59.86
78675;BME280;67990;59.826;30.108;2023-05-10T02:48:09;102447.06;;;5.06;60.45
78675;BME280;67990;59.826;30.108;2023-05-10T02:51:00;102443.09;;;5.19;60.46
78675;BME280;67990;59.826;30.108;2023-05-10T02:53:50;102444.66;;;5.23;60.12
78675;BME280;67990;59.826;30.108;2023-05-10T02:56:23;102441.84;;;5.29;59.48
78675;BME280;67990;59.826;30.108;2023-05-10T02:58:52;102442.72;;;5.28;59.88
78675;BME280;67990;59.826;30.108;2023-05-10T03:01:19;102448.88;;;5.49;59.27
78675;BME280;67990;59.826;30.108;2023-05-10T03:03:46;102444.38;;;5.52;59.73
78675;BME280;67990;59.826;30.108;2023-05-10T03:06:14;102449.16;;;5.63;59.78
78675;BME280;67990;59.826;30.108;2023-05-10T03:08:42;102443.09;;;6.06;59.52
78675;BME280;67990;59.826;30.108;2023-05-10T03:11:28;102440.88;;;7.49;57.89
78675;BME280;67990;59.826;30.108;2023-05-10T03:14:10;102433.75;;;8.72;54.18
78675;BME280;67990;59.826;30.108;2023-05-10T03:16:42;102426.81;;;9.95;50.04
78675;BME280;67990;59.826;30.108;2023-05-10T03:19:17;102423.72;;;11.30;45.60
78675;BME280;67990;59.826;30.108;2023-05-10T03:21:50;102431.53;;;12.49;41.31
78675;BME280;67990;59.826;30.108;2023-05-10T03:24:21;102420.69;;;13.74;39.43
78675;BME280;67990;59.826;30.108;2023-05-10T03:26:51;102424.34;;;14.64;37.11
78675;BME280;67990;59.826;30.108;2023-05-10T03:32:42;102420.72;;;16.46;33.09
78675;BME280;67990;59.826;30.108;2023-05-10T03:35:11;102420.69;;;16.97;31.10
78675;BME280;67990;59.826;30.108;2023-05-10T03:38:00;102420.16;;;17.42;29.78
78675;BME280;67990;59.826;30.108;2023-05-10T03:40:28;102418.88;;;18.22;28.65
78675;BME280;67990;59.826;30.108;2023-05-10T03:43:16;102431.97;;;18.71;28.03
78675;BME280;67990;59.826;30.108;2023-05-10T03:45:43;102426.50;;;18.73;27.08
78675;BME280;67990;59.826;30.108;2023-05-10T03:50:56;102427.94;;;19.66;25.71
78675;BME280;67990;59.826;30.108;2023-05-10T03:53:25;102421.69;;;19.75;25.66
78675;BME280;67990;59.826;30.108;2023-05-10T03:55:52;102422.81;;;20.25;25.09
78675;BME280;67990;59.826;30.108;2023-05-10T03:58:20;102420.22;;;20.58;24.74
78675;BME280;67990;59.826;30.108;2023-05-10T04:00:47;102422.47;;;21.04;24.77
78675;BME280;67990;59.826;30.108;2023-05-10T04:03:32;102419.06;;;21.36;23.81
78675;BME280;67990;59.826;30.108;2023-05-10T04:06:01;102414.09;;;21.57;23.16
78675;BME280;67990;59.826;30.108;2023-05-10T04:08:30;102415.28;;;21.55;22.60
78675;BME280;67990;59.826;30.108;2023-05-10T04:11:05;102407.47;;;21.85;21.93
78675;BME280;67990;59.826;30.108;2023-05-10T04:13:51;102419.66;;;22.60;21.76
78675;BME280;67990;59.826;30.108;2023-05-10T04:16:18;102417.03;;;22.98;20.98
78675;BME280;67990;59.826;30.108;2023-05-10T04:18:46;102416.13;;;22.67;21.28
78675;BME280;67990;59.826;30.108;2023-05-10T04:21:14;102412.34;;;23.61;20.65
78675;BME280;67990;59.826;30.108;2023-05-10T04:24:00;102417.84;;;24.64;19.07
78675;BME280;67990;59.826;30.108;2023-05-10T04:35:21;102414.56;;;25.62;16.91
78675;BME280;67990;59.826;30.108;2023-05-10T04:37:48;102413.38;;;25.92;17.02
78675;BME280;67990;59.826;30.108;2023-05-10T04:40:17;102414.88;;;25.95;17.08
78675;BME280;67990;59.826;30.108;2023-05-10T04:42:45;102415.78;;;26.30;17.24
78675;BME280;67990;59.826;30.108;2023-05-10T04:45:12;102420.69;;;26.75;17.08
78675;BME280;67990;59.826;30.108;2023-05-10T04:47:40;102419.53;;;27.44;16.80
78675;BME280;67990;59.826;30.108;2023-05-10T04:50:07;102416.06;;;27.63;15.96
78675;BME280;67990;59.826;30.108;2023-05-10T04:52:35;102411.31;;;28.30;16.22
78675;BME280;67990;59.826;30.108;2023-05-10T04:55:02;102416.69;;;29.26;15.54
78675;BME280;67990;59.826;30.108;2023-05-10T04:57:31;102419.53;;;29.00;15.04
78675;BME280;67990;59.826;30.108;2023-05-10T05:00:17;102411.75;;;29.60;15.20
78675;BME280;67990;59.826;30.108;2023-05-10T05:03:21;102408.28;;;30.02;15.45
78675;BME280;67990;59.826;30.108;2023-05-10T05:06:06;102405.91;;;30.19;14.03
78675;BME280;67990;59.826;30.108;2023-05-10T05:08:50;102413.78;;;30.70;13.90
78675;BME280;67990;59.826;30.108;2023-05-10T05:14:22;102416.09;;;29.24;15.36
78675;BME280;67990;59.826;30.108;2023-05-10T05:16:50;102420.59;;;28.92;14.92
78675;BME280;67990;59.826;30.108;2023-05-10T05:19:17;102417.25;;;28.90;15.23
78675;BME280;67990;59.826;30.108;2023-05-10T05:22:02;102413.44;;;29.86;15.22
78675;BME280;67990;59.826;30.108;2023-05-10T05:24:46;102415.84;;;30.25;14.14
78675;BME280;67990;59.826;30.108;2023-05-10T05:27:13;102408.81;;;29.18;15.34
78675;BME280;67990;59.826;30.108;2023-05-10T05:29:42;102417.72;;;27.64;16.95
78675;BME280;67990;59.826;30.108;2023-05-10T05:32:28;102410.56;;;29.81;15.31
78675;BME280;67990;59.826;30.108;2023-05-10T05:34:55;102410.56;;;28.99;15.79
78675;BME280;67990;59.826;30.108;2023-05-10T05:37:23;102413.84;;;28.12;16.29
78675;BME280;67990;59.826;30.108;2023-05-10T05:39:50;102407.56;;;27.72;16.79
78675;BME280;67990;59.826;30.108;2023-05-10T05:42:35;102407.56;;;27.66;16.32
78675;BME280;67990;59.826;30.108;2023-05-10T05:45:06;102404.88;;;27.79;16.55
78675;BME280;67990;59.826;30.108;2023-05-10T05:47:34;102410.66;;;27.63;16.54
78675;BME280;67990;59.826;30.108;2023-05-10T05:50:02;102405.09;;;27.97;16.52
78675;BME280;67990;59.826;30.108;2023-05-10T05:52:30;102404.84;;;28.63;16.13
78675;BME280;67990;59.826;30.108;2023-05-10T05:55:15;102415.47;;;28.52;15.62
78675;BME280;67990;59.826;30.108;2023-05-10T05:58:00;102413.75;;;27.00;16.55
78675;BME280;67990;59.826;30.108;2023-05-10T06:00:29;102407.50;;;26.93;16.63
78675;BME280;67990;59.826;30.108;2023-05-10T06:03:15;102408.66;;;26.22;17.58
78675;BME280;67990;59.826;30.108;2023-05-10T06:05:42;102410.16;;;26.25;17.76
78675;BME280;67990;59.826;30.108;2023-05-10T06:08:09;102413.34;;;27.03;17.23
78675;BME280;67990;59.826;30.108;2023-05-10T06:10:36;102413.06;;;26.57;17.65
78675;BME280;67990;59.826;30.108;2023-05-10T06:13:21;102411.84;;;26.94;17.58
78675;BME280;67990;59.826;30.108;2023-05-10T06:15:50;102407.16;;;27.09;17.47
78675;BME280;67990;59.826;30.108;2023-05-10T06:18:17;102405.63;;;26.32;18.17
78675;BME280;67990;59.826;30.108;2023-05-10T06:26:14;102406.50;;;27.73;17.57
78675;BME280;67990;59.826;30.108;2023-05-10T06:28:41;102401.97;;;28.13;17.16
78675;BME280;67990;59.826;30.108;2023-05-10T06:31:10;102412.06;;;27.39;17.61
78675;BME280;67990;59.826;30.108;2023-05-10T06:33:38;102404.13;;;27.25;18.05
78675;BME280;67990;59.826;30.108;2023-05-10T06:36:05;102406.97;;;28.16;17.91
78675;BME280;67990;59.826;30.108;2023-05-10T06:38:32;102403.84;;;28.12;17.43
78675;BME280;67990;59.826;30.108;2023-05-10T06:40:59;102407.88;;;28.86;16.67
78675;BME280;67990;59.826;30.108;2023-05-10T06:43:27;102406.56;;;27.93;17.27
78675;BME280;67990;59.826;30.108;2023-05-10T06:45:55;102417.75;;;28.55;16.91
78675;BME280;67990;59.826;30.108;2023-05-10T06:48:24;102412.97;;;28.31;17.47
78675;BME280;67990;59.826;30.108;2023-05-10T06:50:51;102412.16;;;27.98;17.79
78675;BME280;67990;59.826;30.108;2023-05-10T06:53:18;102420.72;;;28.08;17.88
78675;BME280;67990;59.826;30.108;2023-05-10T06:55:45;102414.03;;;28.43;17.05
78675;BME280;67990;59.826;30.108;2023-05-10T06:58:12;102416.53;;;29.21;16.26
78675;BME280;67990;59.826;30.108;2023-05-10T07:00:39;102413.50;;;29.04;17.15
78675;BME280;67990;59.826;30.108;2023-05-10T07:03:09;102419.00;;;28.65;16.88
78675;BME280;67990;59.826;30.108;2023-05-10T07:08:24;102414.59;;;28.77;16.54
78675;BME280;67990;59.826;30.108;2023-05-10T07:19:25;102408.19;;;29.22;16.19
78675;BME280;67990;59.826;30.108;2023-05-10T07:21:54;102411.09;;;29.21;16.78
78675;BME280;67990;59.826;30.108;2023-05-10T07:24:21;102407.94;;;30.24;16.32
78675;BME280;67990;59.826;30.108;2023-05-10T07:27:07;102414.31;;;29.80;16.29
78675;BME280;67990;59.826;30.108;2023-05-10T07:29:34;102410.56;;;29.06;17.39
78675;BME280;67990;59.826;30.108;2023-05-10T07:32:20;102416.47;;;28.83;17.27
78675;BME280;67990;59.826;30.108;2023-05-10T07:35:06;102413.56;;;28.72;17.50
78675;BME280;67990;59.826;30.108;2023-05-10T07:37:34;102418.38;;;28.37;17.54
78675;BME280;67990;59.826;30.108;2023-05-10T07:40:05;102423.81;;;27.85;17.99
78675;BME280;67990;59.826;30.108;2023-05-10T07:42:32;102416.31;;;28.39;17.43
78675;BME280;67990;59.826;30.108;2023-05-10T07:45:17;102416.41;;;29.03;17.06
78675;BME280;67990;59.826;30.108;2023-05-10T07:48:03;102416.47;;;28.83;16.70
78675;BME280;67990;59.826;30.108;2023-05-10T07:53:17;102416.72;;;28.62;17.43
78675;BME280;67990;59.826;30.108;2023-05-10T07:56:21;102412.78;;;28.65;17.28
78675;BME280;67990;59.826;30.108;2023-05-10T07:58:49;102410.00;;;28.84;16.97
78675;BME280;67990;59.826;30.108;2023-05-10T08:01:35;102425.81;;;28.87;16.91
78675;BME280;67990;59.826;30.108;2023-05-10T08:04:21;102421.63;;;28.98;16.74
78675;BME280;67990;59.826;30.108;2023-05-10T08:07:05;102424.44;;;29.66;16.46
78675;BME280;67990;59.826;30.108;2023-05-10T08:12:20;102419.81;;;29.67;15.96
78675;BME280;67990;59.826;30.108;2023-05-10T08:14:47;102420.50;;;28.48;16.98
78675;BME280;67990;59.826;30.108;2023-05-10T08:20:17;102419.44;;;28.43;17.12
78675;BME280;67990;59.826;30.108;2023-05-10T08:23:02;102422.56;;;28.14;17.45
78675;BME280;67990;59.826;30.108;2023-05-10T08:25:31;102413.28;;;29.06;17.13
78675;BME280;67990;59.826;30.108;2023-05-10T08:28:16;102419.44;;;28.62;16.92
78675;BME280;67990;59.826;30.108;2023-05-10T08:30:44;102419.44;;;28.36;16.64
78675;BME280;67990;59.826;30.108;2023-05-10T08:33:29;102415.06;;;28.29;17.64
78675;BME280;67990;59.826;30.108;2023-05-10T08:36:13;102422.16;;;27.84;17.83
78675;BME280;67990;59.826;30.108;2023-05-10T08:38:58;102422.94;;;27.78;18.12
78675;BME280;67990;59.826;30.108;2023-05-10T08:41:27;102413.56;;;28.72;18.16
78675;BME280;67990;59.826;30.108;2023-05-10T08:43:55;102417.97;;;28.34;17.72
78675;BME280;67990;59.826;30.108;2023-05-10T08:46:23;102417.09;;;28.72;18.20
78675;BME280;67990;59.826;30.108;2023-05-10T08:48:51;102420.69;;;28.40;17.88
78675;BME280;67990;59.826;30.108;2023-05-10T08:55:00;102418.00;;;26.75;19.03
78675;BME280;67990;59.826;30.108;2023-05-10T08:57:29;102420.06;;;28.06;18.39
78675;BME280;67990;59.826;30.108;2023-05-10T08:59:56;102422.50;;;26.68;19.03
78675;BME280;67990;59.826;30.108;2023-05-10T09:02:23;102410.81;;;25.84;19.84
78675;BME280;67990;59.826;30.108;2023-05-10T09:04:50;102418.31;;;26.59;19.50
78675;BME280;67990;59.826;30.108;2023-05-10T09:07:18;102418.03;;;26.81;19.14
78675;BME280;67990;59.826;30.108;2023-05-10T09:10:05;102427.53;;;27.18;18.60
78675;BME280;67990;59.826;30.108;2023-05-10T09:12:53;102423.31;;;27.62;18.05
78675;BME280;67990;59.826;30.108;2023-05-10T09:15:21;102411.56;;;26.48;19.19
78675;BME280;67990;59.826;30.108;2023-05-10T09:18:06;102412.41;;;26.21;19.36
78675;BME280;67990;59.826;30.108;2023-05-10T09:20:33;102420.53;;;26.28;19.46
78675;BME280;67990;59.826;30.108;2023-05-10T09:23:00;102417.38;;;25.75;20.11
78675;BME280;67990;59.826;30.108;2023-05-10T09:25:27;102415.94;;;26.49;19.80
78675;BME280;67990;59.826;30.108;2023-05-10T09:27:55;102408.38;;;25.89;20.05
78675;BME280;67990;59.826;30.108;2023-05-10T09:30:41;102407.75;;;26.36;19.89
78675;BME280;67990;59.826;30.108;2023-05-10T09:33:08;102412.63;;;26.81;19.45
78675;BME280;67990;59.826;30.108;2023-05-10T09:35:36;102414.19;;;25.93;19.28
78675;BME280;67990;59.826;30.108;2023-05-10T09:38:05;102406.28;;;25.28;20.18
78675;BME280;67990;59.826;30.108;2023-05-10T09:40:32;102403.91;;;25.75;20.35
78675;BME280;67990;59.826;30.108;2023-05-10T09:43:19;102413.03;;;25.81;20.04
78675;BME280;67990;59.826;30.108;2023-05-10T09:45:48;102409.91;;;26.20;19.68
78675;BME280;67990;59.826;30.108;2023-05-10T09:48:16;102403.50;;;26.21;20.05
78675;BME280;67990;59.826;30.108;2023-05-10T09:50:43;102406.53;;;26.11;20.04
78675;BME280;67990;59.826;30.108;2023-05-10T09:53:14;102408.00;;;25.50;20.46
78675;BME280;67990;59.826;30.108;2023-05-10T09:55:42;102407.41;;;25.97;20.46
78675;BME280;67990;59.826;30.108;2023-05-10T09:58:11;102403.22;;;25.31;20.60
78675;BME280;67990;59.826;30.108;2023-05-10T10:00:58;102404.09;;;25.53;20.28
78675;BME280;67990;59.826;30.108;2023-05-10T10:03:44;102412.38;;;24.87;20.60
78675;BME280;67990;59.826;30.108;2023-05-10T10:06:34;102405.56;;;25.05;20.69
78675;BME280;67990;59.826;30.108;2023-05-10T10:09:02;102400.91;;;24.56;21.25
78675;BME280;67990;59.826;30.108;2023-05-10T10:11:46;102407.94;;;23.91;22.25
78675;BME280;67990;59.826;30.108;2023-05-10T10:14:14;102402.69;;;23.97;22.11
78675;BME280;67990;59.826;30.108;2023-05-10T10:16:42;102404.81;;;23.79;22.40
78675;BME280;67990;59.826;30.108;2023-05-10T10:19:10;102404.78;;;23.34;22.63
78675;BME280;67990;59.826;30.108;2023-05-10T10:24:24;102401.09;;;22.50;23.45
78675;BME280;67990;59.826;30.108;2023-05-10T10:27:15;102410.44;;;21.58;24.08
78675;BME280;67990;59.826;30.108;2023-05-10T10:33:00;102407.09;;;20.98;25.71
78675;BME280;67990;59.826;30.108;2023-05-10T10:35:34;102410.13;;;21.03;25.72
78675;BME280;67990;59.826;30.108;2023-05-10T10:38:02;102408.25;;;20.96;26.39
78675;BME280;67990;59.826;30.108;2023-05-10T10:43:22;102394.50;;;19.89;27.16
78675;BME280;67990;59.826;30.108;2023-05-10T10:46:10;102394.72;;;19.78;27.22
78675;BME280;67990;59.826;30.108;2023-05-10T10:48:40;102391.06;;;19.96;27.07
78675;BME280;67990;59.826;30.108;2023-05-10T10:51:07;102388.09;;;19.82;26.76
78675;BME280;67990;59.826;30.108;2023-05-10T10:53:34;102392.06;;;19.78;27.63
78675;BME280;67990;59.826;30.108;2023-05-10T10:56:38;102393.69;;;19.53;28.19
78675;BME280;67990;59.826;30.108;2023-05-10T10:59:05;102389.22;;;19.44;28.09
78675;BME280;67990;59.826;30.108;2023-05-10T11:01:33;102389.78;;;19.65;28.10
78675;BME280;67990;59.826;30.108;2023-05-10T11:04:19;102393.06;;;19.77;27.57
78675;BME280;67990;59.826;30.108;2023-05-10T11:07:17;102390.75;;;19.64;27.98
78675;BME280;67990;59.826;30.108;2023-05-10T11:10:04;102390.38;;;19.24;27.47
78675;BME280;67990;59.826;30.108;2023-05-10T11:12:31;102388.53;;;19.15;28.16
78675;BME280;67990;59.826;30.108;2023-05-10T11:18:16;102396.34;;;19.53;28.84
78675;BME280;67990;59.826;30.108;2023-05-10T11:23:48;102384.44;;;19.48;27.75
78675;BME280;67990;59.826;30.108;2023-05-10T11:26:35;102379.50;;;19.53;27.38
78675;BME280;67990;59.826;30.108;2023-05-10T11:29:19;102386.41;;;19.46;27.59
78675;BME280;67990;59.826;30.108;2023-05-10T11:32:05;102374.84;;;19.37;27.33
78675;BME280;67990;59.826;30.108;2023-05-10T11:34:33;102369.28;;;19.31;27.57
78675;BME280;67990;59.826;30.108;2023-05-10T11:37:02;102370.38;;;19.11;26.90
78675;BME280;67990;59.826;30.108;2023-05-10T11:39:31;102363.56;;;18.99;26.92
78675;BME280;67990;59.826;30.108;2023-05-10T11:42:16;102368.13;;;18.89;26.68
78675;BME280;67990;59.826;30.108;2023-05-10T11:47:48;102375.38;;;18.60;27.15
78675;BME280;67990;59.826;30.108;2023-05-10T11:50:16;102367.84;;;18.55;27.86
78675;BME280;67990;59.826;30.108;2023-05-10T11:52:45;102362.53;;;18.46;27.66
78675;BME280;67990;59.826;30.108;2023-05-10T11:55:33;102367.81;;;18.65;28.57
78675;BME280;67990;59.826;30.108;2023-05-10T11:58:01;102362.78;;;18.89;28.56
78675;BME280;67990;59.826;30.108;2023-05-10T12:09:08;102355.38;;;18.56;29.25
78675;BME280;67990;59.826;30.108;2023-05-10T12:11:37;102348.47;;;18.63;29.36
78675;BME280;67990;59.826;30.108;2023-05-10T12:14:05;102345.72;;;18.45;29.10
78675;BME280;67990;59.826;30.108;2023-05-10T12:16:32;102355.44;;;18.37;29.53
78675;BME280;67990;59.826;30.108;2023-05-10T12:19:00;102348.72;;;18.23;29.31
78675;BME280;67990;59.826;30.108;2023-05-10T12:21:28;102348.47;;;17.98;29.51
78675;BME280;67990;59.826;30.108;2023-05-10T12:23:59;102345.00;;;18.07;29.43
78675;BME280;67990;59.826;30.108;2023-05-10T12:26:29;102340.50;;;18.07;29.89
78675;BME280;67990;59.826;30.108;2023-05-10T12:29:12;102347.19;;;18.11;30.08
78675;BME280;67990;59.826;30.108;2023-05-10T12:31:50;102340.81;;;17.95;30.03
78675;BME280;67990;59.826;30.108;2023-05-10T12:34:23;102342.88;;;18.01;29.75
78675;BME280;67990;59.826;30.108;2023-05-10T12:36:52;102336.03;;;17.89;29.49
78675;BME280;67990;59.826;30.108;2023-05-10T12:42:24;102329.66;;;17.72;29.82
78675;BME280;67990;59.826;30.108;2023-05-10T12:44:55;102338.03;;;17.87;30.05
78675;BME280;67990;59.826;30.108;2023-05-10T12:47:22;102343.28;;;18.06;30.29
78675;BME280;67990;59.826;30.108;2023-05-10T12:49:49;102333.38;;;17.98;29.82
78675;BME280;67990;59.826;30.108;2023-05-10T12:52:35;102336.19;;;17.87;29.75
78675;BME280;67990;59.826;30.108;2023-05-10T12:55:21;102337.63;;;17.72;29.67
78675;BME280;67990;59.826;30.108;2023-05-10T12:58:07;102340.13;;;17.55;29.70
78675;BME280;67990;59.826;30.108;2023-05-10T13:00:52;102333.28;;;17.43;29.12
78675;BME280;67990;59.826;30.108;2023-05-10T13:03:22;102325.03;;;17.46;29.85
78675;BME280;67990;59.826;30.108;2023-05-10T13:05:49;102327.66;;;17.74;29.91
78675;BME280;67990;59.826;30.108;2023-05-10T13:08:16;102333.25;;;17.81;28.95
78675;BME280;67990;59.826;30.108;2023-05-10T13:11:02;102331.00;;;17.95;29.43
78675;BME280;67990;59.826;30.108;2023-05-10T13:13:31;102328.59;;;18.02;29.62
78675;BME280;67990;59.826;30.108;2023-05-10T13:15:58;102323.19;;;17.84;28.86
78675;BME280;67990;59.826;30.108;2023-05-10T13:18:43;102330.31;;;17.74;29.03
78675;BME280;67990;59.826;30.108;2023-05-10T13:21:10;102323.91;;;17.67;29.25
78675;BME280;67990;59.826;30.108;2023-05-10T13:23:56;102324.75;;;17.68;29.06
78675;BME280;67990;59.826;30.108;2023-05-10T13:26:23;102325.19;;;17.54;29.53
78675;BME280;67990;59.826;30.108;2023-05-10T13:28:52;102323.50;;;17.43;28.99
78675;BME280;67990;59.826;30.108;2023-05-10T13:31:21;102318.53;;;17.29;29.50
78675;BME280;67990;59.826;30.108;2023-05-10T13:33:48;102321.22;;;17.39;29.31
78675;BME280;67990;59.826;30.108;2023-05-10T13:36:32;102321.41;;;17.56;29.35
78675;BME280;67990;59.826;30.108;2023-05-10T13:39:00;102313.69;;;17.44;29.07
78675;BME280;67990;59.826;30.108;2023-05-10T13:44:16;102314.81;;;17.41;29.44
78675;BME280;67990;59.826;30.108;2023-05-10T13:46:43;102305.72;;;17.44;29.50
78675;BME280;67990;59.826;30.108;2023-05-10T13:49:10;102310.06;;;17.54;29.70
78675;BME280;67990;59.826;30.108;2023-05-10T13:51:38;102310.22;;;17.43;29.06
78675;BME280;67990;59.826;30.108;2023-05-10T13:54:05;102311.28;;;17.22;28.55
78675;BME280;67990;59.826;30.108;2023-05-10T13:59:37;102304.00;;;17.14;28.08
78675;BME280;67990;59.826;30.108;2023-05-10T14:05:09;102305.69;;;17.15;28.61
78675;BME280;67990;59.826;30.108;2023-05-10T14:07:36;102303.72;;;17.17;28.57
78675;BME280;67990;59.826;30.108;2023-05-10T14:10:04;102299.38;;;17.07;28.53
78675;BME280;67990;59.826;30.108;2023-05-10T14:12:49;102307.22;;;17.18;28.46
78675;BME280;67990;59.826;30.108;2023-05-10T14:15:18;102311.69;;;17.27;28.75
78675;BME280;67990;59.826;30.108;2023-05-10T14:17:45;102301.06;;;17.27;29.09
78675;BME280;67990;59.826;30.108;2023-05-10T14:20:13;102305.44;;;17.28;29.67
78675;BME280;67990;59.826;30.108;2023-05-10T14:25:26;102300.94;;;17.19;29.29
78675;BME280;67990;59.826;30.108;2023-05-10T14:27:53;102294.06;;;17.16;29.28
78675;BME280;67990;59.826;30.108;2023-05-10T14:30:22;102303.59;;;17.09;29.33
78675;BME280;67990;59.826;30.108;2023-05-10T14:32:58;102296.88;;;17.15;29.29
78675;BME280;67990;59.826;30.108;2023-05-10T14:38:13;102294.38;;;17.13;29.46
78675;BME280;67990;59.826;30.108;2023-05-10T14:40:40;102298.41;;;17.08;29.17
78675;BME280;67990;59.826;30.108;2023-05-10T14:43:07;102292.81;;;17.01;28.79
78675;BME280;67990;59.826;30.108;2023-05-10T14:45:36;102299.81;;;17.02;29.56
78675;BME280;67990;59.826;30.108;2023-05-10T14:51:06;102291.41;;;16.88;29.00
78675;BME280;67990;59.826;30.108;2023-05-10T14:53:34;102285.38;;;16.95;28.79
78675;BME280;67990;59.826;30.108;2023-05-10T14:56:18;102293.06;;;16.89;28.19
78675;BME280;67990;59.826;30.108;2023-05-10T14:58:47;102295.72;;;16.89;28.56
78675;BME280;67990;59.826;30.108;2023-05-10T15:01:33;102285.53;;;16.94;28.88
78675;BME280;67990;59.826;30.108;2023-05-10T15:10:09;102294.75;;;16.80;29.90
78675;BME280;67990;59.826;30.108;2023-05-10T15:12:37;102298.31;;;16.70;30.12
78675;BME280;67990;59.826;30.108;2023-05-10T15:15:05;102293.69;;;16.62;30.29
78675;BME280;67990;59.826;30.108;2023-05-10T15:17:34;102291.72;;;16.55;30.13
78675;BME280;67990;59.826;30.108;2023-05-10T15:20:02;102288.09;;;16.56;30.65